Search for airport 
image banner adimage banner adimage banner ad
image banner ad

IA72 - Mercy Hospital

Located in Cedar Rapids, United States

ICAO - IA72, IATA -

Data provided by Airmate  

General information

Coordinates: N41°58'40" W91°39'24"
Elevation is 850 feet MSL.
Magnetic variation is 02° East
View others Airports in Iowa

Operational data

Special qualification required
Current time UTC:
Current local time:
Weather at : KCID - The Eastern Iowa ( 11 km )
METAR: KCID 150852Z AUTO 31003KT 10SM CLR 17/12 A3006 RMK AO2 SLP174 T01670117 52002
TAF: KCID 150530Z 1506/1606 36005KT P6SM SKC
View NOTAMs / SUP AIP / TFR affecting this airport [VIEW]
Communications frequencies: [VIEW]

Runways:

Airport contact information

Address: Cedar Rapids United States

Satellite view of IA72